sensor_id;sensor_type;location;lat;lon;timestamp;P1;durP1;ratioP1;P2;durP2;ratioP2
11203;SDS011;5659;49.408;11.116;2023-01-10T00:00:36;4.77;;;2.53;;
11203;SDS011;5659;49.408;11.116;2023-01-10T00:03:03;6.30;;;2.87;;
11203;SDS011;5659;49.408;11.116;2023-01-10T00:05:29;4.70;;;2.73;;
11203;SDS011;5659;49.408;11.116;2023-01-10T00:07:55;7.50;;;2.83;;
11203;SDS011;5659;49.408;11.116;2023-01-10T00:10:23;4.70;;;2.90;;
11203;SDS011;5659;49.408;11.116;2023-01-10T00:12:49;10.00;;;3.20;;
11203;SDS011;5659;49.408;11.116;2023-01-10T00:15:34;11.90;;;3.43;;
11203;SDS011;5659;49.408;11.116;2023-01-10T00:18:00;7.43;;;3.33;;
11203;SDS011;5659;49.408;11.116;2023-01-10T00:20:26;7.17;;;2.80;;
11203;SDS011;5659;49.408;11.116;2023-01-10T00:22:52;7.57;;;3.27;;
11203;SDS011;5659;49.408;11.116;2023-01-10T00:25:18;7.20;;;3.30;;
11203;SDS011;5659;49.408;11.116;2023-01-10T00:27:45;9.03;;;3.63;;
11203;SDS011;5659;49.408;11.116;2023-01-10T00:30:13;6.77;;;2.93;;
11203;SDS011;5659;49.408;11.116;2023-01-10T00:32:43;6.37;;;3.27;;
11203;SDS011;5659;49.408;11.116;2023-01-10T00:35:09;8.43;;;3.30;;
11203;SDS011;5659;49.408;11.116;2023-01-10T00:37:39;6.60;;;3.10;;
11203;SDS011;5659;49.408;11.116;2023-01-10T00:40:05;7.67;;;3.30;;
11203;SDS011;5659;49.408;11.116;2023-01-10T00:42:33;6.03;;;3.50;;
11203;SDS011;5659;49.408;11.116;2023-01-10T00:45:18;6.13;;;3.37;;
11203;SDS011;5659;49.408;11.116;2023-01-10T00:47:44;6.63;;;3.63;;
11203;SDS011;5659;49.408;11.116;2023-01-10T00:52:42;8.60;;;3.80;;
11203;SDS011;5659;49.408;11.116;2023-01-10T00:55:08;8.33;;;3.57;;
11203;SDS011;5659;49.408;11.116;2023-01-10T00:57:34;8.00;;;3.53;;
11203;SDS011;5659;49.408;11.116;2023-01-10T01:00:00;7.33;;;3.50;;
11203;SDS011;5659;49.408;11.116;2023-01-10T01:02:26;9.27;;;3.90;;
11203;SDS011;5659;49.408;11.116;2023-01-10T01:04:52;5.30;;;3.50;;
11203;SDS011;5659;49.408;11.116;2023-01-10T01:07:18;6.27;;;3.63;;
11203;SDS011;5659;49.408;11.116;2023-01-10T01:09:44;6.23;;;3.50;;
11203;SDS011;5659;49.408;11.116;2023-01-10T01:12:29;6.83;;;3.80;;
11203;SDS011;5659;49.408;11.116;2023-01-10T01:14:55;7.73;;;3.70;;
11203;SDS011;5659;49.408;11.116;2023-01-10T01:17:22;7.37;;;3.83;;
11203;SDS011;5659;49.408;11.116;2023-01-10T01:19:48;6.20;;;4.00;;
11203;SDS011;5659;49.408;11.116;2023-01-10T01:22:14;4.53;;;3.73;;
11203;SDS011;5659;49.408;11.116;2023-01-10T01:24:41;5.50;;;3.80;;
11203;SDS011;5659;49.408;11.116;2023-01-10T01:27:07;8.73;;;3.87;;
11203;SDS011;5659;49.408;11.116;2023-01-10T01:29:33;5.47;;;4.00;;
11203;SDS011;5659;49.408;11.116;2023-01-10T01:31:59;6.27;;;3.73;;
11203;SDS011;5659;49.408;11.116;2023-01-10T01:34:25;4.43;;;3.93;;
11203;SDS011;5659;49.408;11.116;2023-01-10T01:36:51;6.87;;;4.10;;
11203;SDS011;5659;49.408;11.116;2023-01-10T01:39:17;6.17;;;4.00;;
11203;SDS011;5659;49.408;11.116;2023-01-10T01:41:43;4.53;;;3.80;;
11203;SDS011;5659;49.408;11.116;2023-01-10T01:44:21;6.97;;;3.63;;
11203;SDS011;5659;49.408;11.116;2023-01-10T01:46:48;3.93;;;3.37;;
11203;SDS011;5659;49.408;11.116;2023-01-10T01:49:19;5.60;;;3.53;;
11203;SDS011;5659;49.408;11.116;2023-01-10T01:51:47;4.30;;;3.83;;
11203;SDS011;5659;49.408;11.116;2023-01-10T01:54:14;7.43;;;3.70;;
11203;SDS011;5659;49.408;11.116;2023-01-10T01:56:42;4.57;;;3.30;;
11203;SDS011;5659;49.408;11.116;2023-01-10T02:01:34;3.50;;;3.20;;
11203;SDS011;5659;49.408;11.116;2023-01-10T02:04:05;3.40;;;3.10;;
11203;SDS011;5659;49.408;11.116;2023-01-10T02:06:31;3.50;;;3.20;;
11203;SDS011;5659;49.408;11.116;2023-01-10T02:09:03;3.67;;;2.87;;
11203;SDS011;5659;49.408;11.116;2023-01-10T02:11:30;3.63;;;3.30;;
11203;SDS011;5659;49.408;11.116;2023-01-10T02:13:56;3.47;;;3.10;;
11203;SDS011;5659;49.408;11.116;2023-01-10T02:16:22;4.67;;;2.87;;
11203;SDS011;5659;49.408;11.116;2023-01-10T02:18:48;4.47;;;3.00;;
11203;SDS011;5659;49.408;11.116;2023-01-10T02:21:17;3.07;;;2.83;;
11203;SDS011;5659;49.408;11.116;2023-01-10T02:26:44;5.63;;;3.10;;
11203;SDS011;5659;49.408;11.116;2023-01-10T02:34:24;4.10;;;2.90;;
11203;SDS011;5659;49.408;11.116;2023-01-10T02:36:55;3.83;;;3.30;;
11203;SDS011;5659;49.408;11.116;2023-01-10T02:39:47;3.97;;;3.00;;
11203;SDS011;5659;49.408;11.116;2023-01-10T02:42:57;5.03;;;3.30;;
11203;SDS011;5659;49.408;11.116;2023-01-10T02:45:09;3.43;;;3.13;;
11203;SDS011;5659;49.408;11.116;2023-01-10T02:47:38;3.90;;;3.10;;
11203;SDS011;5659;49.408;11.116;2023-01-10T02:52:48;6.13;;;3.50;;
11203;SDS011;5659;49.408;11.116;2023-01-10T02:55:14;3.60;;;3.27;;
11203;SDS011;5659;49.408;11.116;2023-01-10T02:58:00;3.43;;;3.13;;
11203;SDS011;5659;49.408;11.116;2023-01-10T03:03:22;6.67;;;3.90;;
11203;SDS011;5659;49.408;11.116;2023-01-10T03:05:54;4.60;;;3.67;;
11203;SDS011;5659;49.408;11.116;2023-01-10T03:08:33;4.03;;;3.63;;
11203;SDS011;5659;49.408;11.116;2023-01-10T03:11:01;4.23;;;3.47;;
11203;SDS011;5659;49.408;11.116;2023-01-10T03:13:33;4.83;;;3.70;;
11203;SDS011;5659;49.408;11.116;2023-01-10T03:16:01;6.20;;;3.70;;
11203;SDS011;5659;49.408;11.116;2023-01-10T03:18:32;4.77;;;3.90;;
11203;SDS011;5659;49.408;11.116;2023-01-10T03:20:59;4.07;;;3.67;;
11203;SDS011;5659;49.408;11.116;2023-01-10T03:23:25;5.23;;;3.57;;
11203;SDS011;5659;49.408;11.116;2023-01-10T03:25:52;5.87;;;3.67;;
11203;SDS011;5659;49.408;11.116;2023-01-10T03:28:22;6.20;;;3.80;;
11203;SDS011;5659;49.408;11.116;2023-01-10T03:30:51;5.67;;;3.80;;
11203;SDS011;5659;49.408;11.116;2023-01-10T03:33:20;4.10;;;3.70;;
11203;SDS011;5659;49.408;11.116;2023-01-10T03:35:52;5.13;;;3.87;;
11203;SDS011;5659;49.408;11.116;2023-01-10T03:38:28;6.90;;;4.20;;
11203;SDS011;5659;49.408;11.116;2023-01-10T03:41:02;4.20;;;3.80;;
11203;SDS011;5659;49.408;11.116;2023-01-10T03:46:20;4.87;;;3.63;;
11203;SDS011;5659;49.408;11.116;2023-01-10T03:48:48;4.87;;;3.73;;
11203;SDS011;5659;49.408;11.116;2023-01-10T03:51:14;7.93;;;4.70;;
11203;SDS011;5659;49.408;11.116;2023-01-10T03:53:41;7.53;;;4.27;;
11203;SDS011;5659;49.408;11.116;2023-01-10T03:56:07;5.90;;;4.60;;
11203;SDS011;5659;49.408;11.116;2023-01-10T03:58:32;7.50;;;4.40;;
11203;SDS011;5659;49.408;11.116;2023-01-10T04:00:58;5.20;;;4.40;;
11203;SDS011;5659;49.408;11.116;2023-01-10T04:03:24;6.57;;;4.17;;
11203;SDS011;5659;49.408;11.116;2023-01-10T04:05:50;6.43;;;4.40;;
11203;SDS011;5659;49.408;11.116;2023-01-10T04:08:16;6.33;;;4.83;;
11203;SDS011;5659;49.408;11.116;2023-01-10T04:10:42;6.47;;;4.77;;
11203;SDS011;5659;49.408;11.116;2023-01-10T04:13:08;5.70;;;4.50;;
11203;SDS011;5659;49.408;11.116;2023-01-10T04:15:34;7.03;;;4.83;;
11203;SDS011;5659;49.408;11.116;2023-01-10T04:18:00;6.23;;;4.30;;
11203;SDS011;5659;49.408;11.116;2023-01-10T04:20:26;6.87;;;4.57;;
11203;SDS011;5659;49.408;11.116;2023-01-10T04:22:52;5.20;;;4.60;;
11203;SDS011;5659;49.408;11.116;2023-01-10T04:25:19;5.73;;;4.53;;
11203;SDS011;5659;49.408;11.116;2023-01-10T04:27:45;5.93;;;4.60;;
11203;SDS011;5659;49.408;11.116;2023-01-10T04:30:11;6.77;;;4.87;;
11203;SDS011;5659;49.408;11.116;2023-01-10T04:32:37;5.93;;;4.80;;
11203;SDS011;5659;49.408;11.116;2023-01-10T04:35:03;7.87;;;5.07;;
11203;SDS011;5659;49.408;11.116;2023-01-10T04:37:29;6.77;;;5.50;;
11203;SDS011;5659;49.408;11.116;2023-01-10T04:39:55;8.40;;;6.10;;
11203;SDS011;5659;49.408;11.116;2023-01-10T04:42:21;9.97;;;5.73;;
11203;SDS011;5659;49.408;11.116;2023-01-10T04:44:47;10.80;;;5.83;;
11203;SDS011;5659;49.408;11.116;2023-01-10T04:47:13;5.83;;;5.10;;
11203;SDS011;5659;49.408;11.116;2023-01-10T04:49:39;7.57;;;5.87;;
11203;SDS011;5659;49.408;11.116;2023-01-10T04:52:05;11.43;;;5.77;;
11203;SDS011;5659;49.408;11.116;2023-01-10T04:54:31;8.13;;;5.80;;
11203;SDS011;5659;49.408;11.116;2023-01-10T04:56:57;8.73;;;5.90;;
11203;SDS011;5659;49.408;11.116;2023-01-10T04:59:23;11.57;;;6.30;;
11203;SDS011;5659;49.408;11.116;2023-01-10T05:01:49;8.10;;;5.87;;
11203;SDS011;5659;49.408;11.116;2023-01-10T05:04:15;8.43;;;5.43;;
11203;SDS011;5659;49.408;11.116;2023-01-10T05:06:41;7.40;;;5.40;;
11203;SDS011;5659;49.408;11.116;2023-01-10T05:09:07;5.97;;;5.37;;
11203;SDS011;5659;49.408;11.116;2023-01-10T05:11:33;7.00;;;5.60;;
11203;SDS011;5659;49.408;11.116;2023-01-10T05:13:59;8.27;;;5.57;;
11203;SDS011;5659;49.408;11.116;2023-01-10T05:16:26;8.10;;;5.67;;
11203;SDS011;5659;49.408;11.116;2023-01-10T05:18:51;7.47;;;5.40;;
11203;SDS011;5659;49.408;11.116;2023-01-10T05:21:17;6.73;;;5.20;;
11203;SDS011;5659;49.408;11.116;2023-01-10T05:23:43;11.93;;;5.93;;
11203;SDS011;5659;49.408;11.116;2023-01-10T05:26:11;7.43;;;5.43;;
11203;SDS011;5659;49.408;11.116;2023-01-10T05:28:37;7.47;;;5.83;;
11203;SDS011;5659;49.408;11.116;2023-01-10T05:31:07;8.13;;;6.03;;
11203;SDS011;5659;49.408;11.116;2023-01-10T05:33:33;9.60;;;6.43;;
11203;SDS011;5659;49.408;11.116;2023-01-10T05:36:00;9.80;;;5.93;;
11203;SDS011;5659;49.408;11.116;2023-01-10T05:38:27;12.47;;;6.50;;
11203;SDS011;5659;49.408;11.116;2023-01-10T05:40:54;7.40;;;6.30;;
11203;SDS011;5659;49.408;11.116;2023-01-10T05:43:20;9.67;;;7.03;;
11203;SDS011;5659;49.408;11.116;2023-01-10T05:45:46;8.73;;;6.63;;
11203;SDS011;5659;49.408;11.116;2023-01-10T05:48:12;11.67;;;6.50;;
11203;SDS011;5659;49.408;11.116;2023-01-10T05:50:38;8.70;;;6.27;;
11203;SDS011;5659;49.408;11.116;2023-01-10T05:53:04;10.93;;;6.07;;
11203;SDS011;5659;49.408;11.116;2023-01-10T05:55:31;12.67;;;6.70;;
11203;SDS011;5659;49.408;11.116;2023-01-10T05:57:57;10.93;;;6.70;;
11203;SDS011;5659;49.408;11.116;2023-01-10T06:00:23;10.10;;;6.53;;
11203;SDS011;5659;49.408;11.116;2023-01-10T06:02:49;8.70;;;6.47;;
11203;SDS011;5659;49.408;11.116;2023-01-10T06:05:15;8.30;;;6.63;;
11203;SDS011;5659;49.408;11.116;2023-01-10T06:07:41;7.53;;;6.30;;
11203;SDS011;5659;49.408;11.116;2023-01-10T06:10:07;11.20;;;5.77;;
11203;SDS011;5659;49.408;11.116;2023-01-10T06:12:33;9.37;;;6.40;;
11203;SDS011;5659;49.408;11.116;2023-01-10T06:14:59;12.60;;;5.80;;
11203;SDS011;5659;49.408;11.116;2023-01-10T06:17:25;9.07;;;6.23;;
11203;SDS011;5659;49.408;11.116;2023-01-10T06:19:51;9.83;;;5.97;;
11203;SDS011;5659;49.408;11.116;2023-01-10T06:22:17;9.07;;;5.83;;
11203;SDS011;5659;49.408;11.116;2023-01-10T06:24:43;11.03;;;5.00;;
11203;SDS011;5659;49.408;11.116;2023-01-10T06:27:09;11.33;;;6.00;;
11203;SDS011;5659;49.408;11.116;2023-01-10T06:29:35;7.03;;;5.60;;
11203;SDS011;5659;49.408;11.116;2023-01-10T06:32:01;7.47;;;5.53;;
11203;SDS011;5659;49.408;11.116;2023-01-10T06:34:27;10.10;;;6.20;;
11203;SDS011;5659;49.408;11.116;2023-01-10T06:36:53;9.40;;;5.07;;
11203;SDS011;5659;49.408;11.116;2023-01-10T06:39:19;8.37;;;5.33;;
11203;SDS011;5659;49.408;11.116;2023-01-10T06:41:44;7.90;;;5.20;;
11203;SDS011;5659;49.408;11.116;2023-01-10T06:44:10;9.70;;;5.63;;
11203;SDS011;5659;49.408;11.116;2023-01-10T06:46:37;8.23;;;5.40;;
11203;SDS011;5659;49.408;11.116;2023-01-10T06:49:04;7.70;;;5.33;;
11203;SDS011;5659;49.408;11.116;2023-01-10T06:51:30;18.03;;;5.30;;
11203;SDS011;5659;49.408;11.116;2023-01-10T06:53:56;7.83;;;5.00;;
11203;SDS011;5659;49.408;11.116;2023-01-10T06:58:57;11.97;;;4.90;;
11203;SDS011;5659;49.408;11.116;2023-01-10T07:01:23;8.07;;;5.20;;
11203;SDS011;5659;49.408;11.116;2023-01-10T07:03:49;10.43;;;4.87;;
11203;SDS011;5659;49.408;11.116;2023-01-10T07:06:15;8.27;;;4.27;;
11203;SDS011;5659;49.408;11.116;2023-01-10T07:08:42;10.53;;;4.20;;
11203;SDS011;5659;49.408;11.116;2023-01-10T07:11:09;8.17;;;4.27;;
11203;SDS011;5659;49.408;11.116;2023-01-10T07:13:36;11.40;;;4.07;;
11203;SDS011;5659;49.408;11.116;2023-01-10T07:18:28;8.90;;;4.23;;
11203;SDS011;5659;49.408;11.116;2023-01-10T07:20:53;10.73;;;4.17;;
11203;SDS011;5659;49.408;11.116;2023-01-10T07:23:19;16.20;;;4.70;;
11203;SDS011;5659;49.408;11.116;2023-01-10T07:25:46;9.17;;;4.50;;
11203;SDS011;5659;49.408;11.116;2023-01-10T07:28:12;8.30;;;4.00;;
11203;SDS011;5659;49.408;11.116;2023-01-10T07:30:38;9.60;;;3.90;;
11203;SDS011;5659;49.408;11.116;2023-01-10T07:33:04;6.43;;;3.70;;
11203;SDS011;5659;49.408;11.116;2023-01-10T07:35:30;6.90;;;3.97;;
11203;SDS011;5659;49.408;11.116;2023-01-10T07:37:57;6.63;;;3.93;;
11203;SDS011;5659;49.408;11.116;2023-01-10T07:40:23;8.37;;;4.03;;
11203;SDS011;5659;49.408;11.116;2023-01-10T07:42:49;9.87;;;3.80;;
11203;SDS011;5659;49.408;11.116;2023-01-10T07:45:20;9.47;;;4.03;;
11203;SDS011;5659;49.408;11.116;2023-01-10T07:47:46;8.83;;;3.90;;
11203;SDS011;5659;49.408;11.116;2023-01-10T07:50:12;11.90;;;4.67;;
11203;SDS011;5659;49.408;11.116;2023-01-10T07:52:38;13.83;;;4.27;;
11203;SDS011;5659;49.408;11.116;2023-01-10T07:55:04;13.17;;;4.33;;
11203;SDS011;5659;49.408;11.116;2023-01-10T07:57:30;9.27;;;3.50;;
11203;SDS011;5659;49.408;11.116;2023-01-10T07:59:56;7.00;;;3.83;;
11203;SDS011;5659;49.408;11.116;2023-01-10T08:02:22;5.97;;;3.17;;
11203;SDS011;5659;49.408;11.116;2023-01-10T08:04:48;8.83;;;3.10;;
11203;SDS011;5659;49.408;11.116;2023-01-10T08:07:14;12.63;;;3.30;;
11203;SDS011;5659;49.408;11.116;2023-01-10T08:09:40;8.63;;;3.90;;
11203;SDS011;5659;49.408;11.116;2023-01-10T08:12:06;9.77;;;3.43;;
11203;SDS011;5659;49.408;11.116;2023-01-10T08:14:32;6.97;;;3.23;;
11203;SDS011;5659;49.408;11.116;2023-01-10T08:16:58;8.07;;;3.23;;
11203;SDS011;5659;49.408;11.116;2023-01-10T08:19:24;8.37;;;3.53;;
11203;SDS011;5659;49.408;11.116;2023-01-10T08:21:49;11.17;;;3.73;;
11203;SDS011;5659;49.408;11.116;2023-01-10T08:24:15;12.63;;;3.73;;
11203;SDS011;5659;49.408;11.116;2023-01-10T08:26:41;10.00;;;3.37;;
11203;SDS011;5659;49.408;11.116;2023-01-10T08:29:07;10.50;;;3.90;;
11203;SDS011;5659;49.408;11.116;2023-01-10T08:31:33;10.83;;;4.00;;
11203;SDS011;5659;49.408;11.116;2023-01-10T08:33:59;10.50;;;3.50;;
11203;SDS011;5659;49.408;11.116;2023-01-10T08:36:25;8.10;;;3.70;;
11203;SDS011;5659;49.408;11.116;2023-01-10T08:38:54;8.00;;;3.60;;
11203;SDS011;5659;49.408;11.116;2023-01-10T08:41:20;10.00;;;4.00;;
11203;SDS011;5659;49.408;11.116;2023-01-10T08:43:49;10.57;;;3.60;;
11203;SDS011;5659;49.408;11.116;2023-01-10T08:46:15;6.80;;;3.57;;
11203;SDS011;5659;49.408;11.116;2023-01-10T08:48:42;14.40;;;4.43;;
11203;SDS011;5659;49.408;11.116;2023-01-10T08:51:08;8.70;;;3.67;;
11203;SDS011;5659;49.408;11.116;2023-01-10T08:53:34;11.50;;;4.07;;
11203;SDS011;5659;49.408;11.116;2023-01-10T08:56:01;15.00;;;4.30;;
11203;SDS011;5659;49.408;11.116;2023-01-10T08:58:27;16.47;;;4.10;;
11203;SDS011;5659;49.408;11.116;2023-01-10T09:00:53;7.87;;;3.77;;
11203;SDS011;5659;49.408;11.116;2023-01-10T09:03:19;8.83;;;4.03;;
11203;SDS011;5659;49.408;11.116;2023-01-10T09:05:45;11.00;;;4.47;;
11203;SDS011;5659;49.408;11.116;2023-01-10T09:08:11;11.13;;;4.37;;
11203;SDS011;5659;49.408;11.116;2023-01-10T09:10:37;12.93;;;4.57;;
11203;SDS011;5659;49.408;11.116;2023-01-10T09:13:03;10.40;;;4.47;;
11203;SDS011;5659;49.408;11.116;2023-01-10T09:15:33;10.73;;;4.10;;
11203;SDS011;5659;49.408;11.116;2023-01-10T09:18:00;10.60;;;4.20;;
11203;SDS011;5659;49.408;11.116;2023-01-10T09:20:28;10.87;;;3.63;;
11203;SDS011;5659;49.408;11.116;2023-01-10T09:22:54;12.60;;;4.30;;
11203;SDS011;5659;49.408;11.116;2023-01-10T09:25:21;13.00;;;4.00;;
11203;SDS011;5659;49.408;11.116;2023-01-10T09:27:47;8.90;;;4.00;;
11203;SDS011;5659;49.408;11.116;2023-01-10T09:30:13;9.77;;;3.77;;
11203;SDS011;5659;49.408;11.116;2023-01-10T09:32:39;14.17;;;4.00;;
11203;SDS011;5659;49.408;11.116;2023-01-10T09:35:05;11.03;;;4.47;;
11203;SDS011;5659;49.408;11.116;2023-01-10T09:37:31;11.30;;;4.20;;
11203;SDS011;5659;49.408;11.116;2023-01-10T09:39:58;12.60;;;3.40;;
11203;SDS011;5659;49.408;11.116;2023-01-10T09:50:12;10.77;;;3.73;;
11203;SDS011;5659;49.408;11.116;2023-01-10T09:52:46;10.90;;;4.00;;
11203;SDS011;5659;49.408;11.116;2023-01-10T09:57:43;13.97;;;3.87;;
11203;SDS011;5659;49.408;11.116;2023-01-10T10:00:20;14.30;;;4.40;;
11203;SDS011;5659;49.408;11.116;2023-01-10T10:02:48;11.70;;;4.00;;
11203;SDS011;5659;49.408;11.116;2023-01-10T10:05:23;9.33;;;4.30;;
11203;SDS011;5659;49.408;11.116;2023-01-10T10:07:56;10.20;;;4.40;;
11203;SDS011;5659;49.408;11.116;2023-01-10T10:10:24;9.03;;;4.10;;
11203;SDS011;5659;49.408;11.116;2023-01-10T10:12:54;16.33;;;3.93;;
11203;SDS011;5659;49.408;11.116;2023-01-10T10:20:30;10.13;;;3.80;;
11203;SDS011;5659;49.408;11.116;2023-01-10T10:25:37;9.70;;;4.03;;
11203;SDS011;5659;49.408;11.116;2023-01-10T10:30:48;9.63;;;3.50;;
11203;SDS011;5659;49.408;11.116;2023-01-10T10:35:59;9.50;;;3.67;;
11203;SDS011;5659;49.408;11.116;2023-01-10T10:38:28;13.33;;;4.30;;
11203;SDS011;5659;49.408;11.116;2023-01-10T10:40:57;11.50;;;3.80;;
11203;SDS011;5659;49.408;11.116;2023-01-10T10:43:28;13.07;;;4.30;;
11203;SDS011;5659;49.408;11.116;2023-01-10T10:46:08;12.77;;;5.47;;
11203;SDS011;5659;49.408;11.116;2023-01-10T10:48:56;10.77;;;3.63;;
11203;SDS011;5659;49.408;11.116;2023-01-10T10:51:53;10.30;;;4.00;;
11203;SDS011;5659;49.408;11.116;2023-01-10T10:54:12;11.20;;;3.93;;
11203;SDS011;5659;49.408;11.116;2023-01-10T10:56:40;6.30;;;3.00;;
11203;SDS011;5659;49.408;11.116;2023-01-10T10:59:07;11.53;;;3.33;;
11203;SDS011;5659;49.408;11.116;2023-01-10T11:01:33;12.70;;;3.90;;
11203;SDS011;5659;49.408;11.116;2023-01-10T11:04:00;9.30;;;3.17;;
11203;SDS011;5659;49.408;11.116;2023-01-10T11:06:27;15.20;;;3.77;;
11203;SDS011;5659;49.408;11.116;2023-01-10T11:08:55;9.00;;;3.00;;
11203;SDS011;5659;49.408;11.116;2023-01-10T11:13:51;15.00;;;3.60;;
11203;SDS011;5659;49.408;11.116;2023-01-10T11:16:28;9.77;;;3.60;;
11203;SDS011;5659;49.408;11.116;2023-01-10T11:19:14;12.80;;;4.33;;
11203;SDS011;5659;49.408;11.116;2023-01-10T11:21:45;14.43;;;3.60;;
11203;SDS011;5659;49.408;11.116;2023-01-10T11:24:22;10.90;;;3.33;;
11203;SDS011;5659;49.408;11.116;2023-01-10T11:26:50;9.37;;;3.53;;
11203;SDS011;5659;49.408;11.116;2023-01-10T11:29:17;9.53;;;2.80;;
11203;SDS011;5659;49.408;11.116;2023-01-10T11:31:46;14.67;;;3.17;;
11203;SDS011;5659;49.408;11.116;2023-01-10T11:34:32;18.30;;;3.37;;
11203;SDS011;5659;49.408;11.116;2023-01-10T11:37:42;11.87;;;3.00;;
11203;SDS011;5659;49.408;11.116;2023-01-10T11:42:37;13.00;;;3.43;;
11203;SDS011;5659;49.408;11.116;2023-01-10T11:47:48;8.40;;;2.87;;
11203;SDS011;5659;49.408;11.116;2023-01-10T11:56:06;8.77;;;3.13;;
11203;SDS011;5659;49.408;11.116;2023-01-10T11:58:34;13.13;;;3.10;;
11203;SDS011;5659;49.408;11.116;2023-01-10T12:01:02;17.10;;;3.40;;
11203;SDS011;5659;49.408;11.116;2023-01-10T12:03:29;13.10;;;3.20;;
11203;SDS011;5659;49.408;11.116;2023-01-10T12:08:26;12.50;;;3.13;;
11203;SDS011;5659;49.408;11.116;2023-01-10T12:11:36;12.67;;;3.50;;
11203;SDS011;5659;49.408;11.116;2023-01-10T12:16:16;14.33;;;3.70;;
11203;SDS011;5659;49.408;11.116;2023-01-10T12:18:43;10.60;;;3.60;;
11203;SDS011;5659;49.408;11.116;2023-01-10T12:21:09;15.77;;;4.10;;
11203;SDS011;5659;49.408;11.116;2023-01-10T12:23:37;12.50;;;3.67;;
11203;SDS011;5659;49.408;11.116;2023-01-10T12:26:06;9.17;;;3.67;;
11203;SDS011;5659;49.408;11.116;2023-01-10T12:28:31;12.93;;;3.10;;
11203;SDS011;5659;49.408;11.116;2023-01-10T12:30:58;14.30;;;3.10;;
11203;SDS011;5659;49.408;11.116;2023-01-10T12:33:35;13.77;;;3.33;;
11203;SDS011;5659;49.408;11.116;2023-01-10T12:36:11;10.40;;;3.67;;
11203;SDS011;5659;49.408;11.116;2023-01-10T12:38:39;11.63;;;3.30;;
11203;SDS011;5659;49.408;11.116;2023-01-10T12:41:29;17.03;;;3.63;;
11203;SDS011;5659;49.408;11.116;2023-01-10T12:44:24;13.70;;;3.87;;
11203;SDS011;5659;49.408;11.116;2023-01-10T12:46:56;13.33;;;3.90;;
11203;SDS011;5659;49.408;11.116;2023-01-10T12:49:28;14.67;;;3.67;;
11203;SDS011;5659;49.408;11.116;2023-01-10T12:51:57;12.47;;;3.27;;
11203;SDS011;5659;49.408;11.116;2023-01-10T12:54:27;15.27;;;3.37;;
11203;SDS011;5659;49.408;11.116;2023-01-10T12:56:54;15.10;;;3.40;;
11203;SDS011;5659;49.408;11.116;2023-01-10T12:59:25;14.93;;;4.13;;
11203;SDS011;5659;49.408;11.116;2023-01-10T13:01:59;16.87;;;3.80;;
11203;SDS011;5659;49.408;11.116;2023-01-10T13:04:27;22.10;;;4.97;;
11203;SDS011;5659;49.408;11.116;2023-01-10T13:06:55;17.20;;;4.67;;
11203;SDS011;5659;49.408;11.116;2023-01-10T13:09:22;13.30;;;4.17;;
11203;SDS011;5659;49.408;11.116;2023-01-10T13:11:54;19.63;;;4.10;;
11203;SDS011;5659;49.408;11.116;2023-01-10T13:14:43;18.30;;;4.03;;
11203;SDS011;5659;49.408;11.116;2023-01-10T13:22:44;15.17;;;3.60;;
11203;SDS011;5659;49.408;11.116;2023-01-10T13:25:19;15.17;;;4.00;;
11203;SDS011;5659;49.408;11.116;2023-01-10T13:27:56;15.60;;;3.50;;
11203;SDS011;5659;49.408;11.116;2023-01-10T13:30:41;14.47;;;3.43;;
11203;SDS011;5659;49.408;11.116;2023-01-10T13:35:37;8.00;;;3.03;;
11203;SDS011;5659;49.408;11.116;2023-01-10T13:38:04;9.83;;;2.80;;
11203;SDS011;5659;49.408;11.116;2023-01-10T13:40:30;9.63;;;3.20;;
11203;SDS011;5659;49.408;11.116;2023-01-10T13:43:58;12.30;;;3.33;;
11203;SDS011;5659;49.408;11.116;2023-01-10T13:51:21;12.73;;;3.57;;
11203;SDS011;5659;49.408;11.116;2023-01-10T13:53:51;13.10;;;2.87;;
11203;SDS011;5659;49.408;11.116;2023-01-10T13:56:38;12.90;;;4.00;;
11203;SDS011;5659;49.408;11.116;2023-01-10T13:59:58;8.73;;;3.27;;
11203;SDS011;5659;49.408;11.116;2023-01-10T14:02:22;16.57;;;3.80;;
11203;SDS011;5659;49.408;11.116;2023-01-10T14:05:02;16.43;;;3.50;;
11203;SDS011;5659;49.408;11.116;2023-01-10T14:07:29;11.60;;;3.27;;
11203;SDS011;5659;49.408;11.116;2023-01-10T14:10:00;18.50;;;3.17;;
11203;SDS011;5659;49.408;11.116;2023-01-10T14:12:36;11.60;;;2.63;;
11203;SDS011;5659;49.408;11.116;2023-01-10T14:15:18;9.37;;;2.80;;
11203;SDS011;5659;49.408;11.116;2023-01-10T14:17:45;9.13;;;3.23;;
11203;SDS011;5659;49.408;11.116;2023-01-10T14:20:18;14.03;;;3.40;;
11203;SDS011;5659;49.408;11.116;2023-01-10T14:23:03;10.37;;;3.00;;
11203;SDS011;5659;49.408;11.116;2023-01-10T14:25:30;15.10;;;4.10;;
11203;SDS011;5659;49.408;11.116;2023-01-10T14:27:58;13.67;;;3.93;;
11203;SDS011;5659;49.408;11.116;2023-01-10T14:31:08;8.80;;;3.30;;
11203;SDS011;5659;49.408;11.116;2023-01-10T14:33:59;11.90;;;3.70;;
11203;SDS011;5659;49.408;11.116;2023-01-10T14:36:31;16.70;;;3.07;;
11203;SDS011;5659;49.408;11.116;2023-01-10T14:39:00;11.23;;;2.70;;
11203;SDS011;5659;49.408;11.116;2023-01-10T14:41:30;12.50;;;3.43;;
11203;SDS011;5659;49.408;11.116;2023-01-10T14:44:06;11.67;;;3.40;;
11203;SDS011;5659;49.408;11.116;2023-01-10T14:51:51;13.37;;;3.50;;
11203;SDS011;5659;49.408;11.116;2023-01-10T14:54:38;12.43;;;3.10;;
11203;SDS011;5659;49.408;11.116;2023-01-10T14:57:13;10.47;;;2.77;;
11203;SDS011;5659;49.408;11.116;2023-01-10T14:59:40;17.57;;;3.30;;
11203;SDS011;5659;49.408;11.116;2023-01-10T15:02:15;12.67;;;3.47;;
11203;SDS011;5659;49.408;11.116;2023-01-10T15:07:23;11.27;;;3.53;;
11203;SDS011;5659;49.408;11.116;2023-01-10T15:09:58;17.37;;;4.40;;
11203;SDS011;5659;49.408;11.116;2023-01-10T15:12:49;11.20;;;3.40;;
11203;SDS011;5659;49.408;11.116;2023-01-10T15:15:18;15.00;;;3.93;;
11203;SDS011;5659;49.408;11.116;2023-01-10T15:17:45;23.73;;;3.57;;
11203;SDS011;5659;49.408;11.116;2023-01-10T15:20:15;7.53;;;3.00;;
11203;SDS011;5659;49.408;11.116;2023-01-10T15:22:44;8.33;;;3.13;;
11203;SDS011;5659;49.408;11.116;2023-01-10T15:25:24;12.10;;;3.10;;
11203;SDS011;5659;49.408;11.116;2023-01-10T15:27:53;11.50;;;3.50;;
11203;SDS011;5659;49.408;11.116;2023-01-10T15:30:26;11.17;;;3.57;;
11203;SDS011;5659;49.408;11.116;2023-01-10T15:32:57;11.57;;;3.63;;
11203;SDS011;5659;49.408;11.116;2023-01-10T15:35:27;12.60;;;3.27;;
11203;SDS011;5659;49.408;11.116;2023-01-10T15:37:58;17.03;;;3.43;;
11203;SDS011;5659;49.408;11.116;2023-01-10T15:40:28;10.60;;;3.33;;
11203;SDS011;5659;49.408;11.116;2023-01-10T15:45:39;19.07;;;3.67;;
11203;SDS011;5659;49.408;11.116;2023-01-10T15:48:23;10.40;;;2.97;;
11203;SDS011;5659;49.408;11.116;2023-01-10T15:50:59;10.10;;;3.27;;
11203;SDS011;5659;49.408;11.116;2023-01-10T15:56:14;9.63;;;2.77;;
11203;SDS011;5659;49.408;11.116;2023-01-10T15:58:44;12.80;;;3.00;;
11203;SDS011;5659;49.408;11.116;2023-01-10T16:01:13;8.67;;;2.93;;
11203;SDS011;5659;49.408;11.116;2023-01-10T16:03:44;13.27;;;3.77;;
11203;SDS011;5659;49.408;11.116;2023-01-10T16:06:19;10.43;;;3.50;;
11203;SDS011;5659;49.408;11.116;2023-01-10T16:08:51;12.37;;;3.73;;
11203;SDS011;5659;49.408;11.116;2023-01-10T16:11:19;9.90;;;3.87;;
11203;SDS011;5659;49.408;11.116;2023-01-10T16:14:10;10.07;;;3.73;;
11203;SDS011;5659;49.408;11.116;2023-01-10T16:16:36;10.97;;;4.07;;
11203;SDS011;5659;49.408;11.116;2023-01-10T16:19:02;13.23;;;3.97;;
11203;SDS011;5659;49.408;11.116;2023-01-10T16:21:31;12.43;;;3.73;;
11203;SDS011;5659;49.408;11.116;2023-01-10T16:23:58;10.17;;;3.87;;
11203;SDS011;5659;49.408;11.116;2023-01-10T16:26:24;12.60;;;3.53;;
11203;SDS011;5659;49.408;11.116;2023-01-10T16:28:53;11.60;;;3.07;;